Time;durP1;ratioP1;P1;durP2;ratioP2;P2;SDS_P1;SDS_P2;PMS_P1;PMS_P2;Temp;Humidity;BMP_temperature;BMP_pressure;BME280_temperature;BME280_humidity;BME280_pressure;Samples;Min_cycle;Max_cycle;Signal;HPM_P1;HPM_P2
2023/04/07 00:01:31;;;;;;;7.55;4.20;;;;;;;;;;5009504;28;20097;-89
2023/04/07 00:03:59;;;;;;;4.93;3.88;;;;;;;;;;5026362;28;20030;-89
2023/04/07 00:06:26;;;;;;;7.63;4.40;;;;;;;;;;5026855;28;20105;-88
2023/04/07 00:08:54;;;;;;;6.90;3.72;;;;;;;;;;5022284;28;20017;-88
2023/04/07 00:11:19;;;;;;;6.93;4.18;;;;;;;;;;5032457;28;20029;-87
2023/04/07 00:13:44;;;;;;;6.32;3.97;;;;;;;;;;5010530;28;20032;-89
2023/04/07 00:16:10;;;;;;;7.07;3.80;;;;;;;;;;5017926;28;20017;-88
2023/04/07 00:18:35;;;;;;;7.65;4.30;;;;;;;;;;5032546;28;20081;-87
2023/04/07 00:21:00;;;;;;;6.00;3.65;;;;;;;;;;5016284;28;20018;-88
2023/04/07 00:23:39;;;;;;;;;;;;;;;;;;;;;
2023/04/07 00:26:07;;;;;;;7.97;4.25;;;;;;;;;;5032330;28;20017;-87
2023/04/07 00:28:33;;;;;;;7.25;4.35;;;;;;;;;;5032303;28;20083;-87
2023/04/07 00:30:58;;;;;;;7.95;3.85;;;;;;;;;;5018819;28;20708;-86
2023/04/07 00:33:23;;;;;;;7.80;4.80;;;;;;;;;;5022493;28;20460;-87
2023/04/07 00:35:49;;;;;;;5.88;4.47;;;;;;;;;;5028587;28;20032;-87
2023/04/07 00:38:14;;;;;;;5.82;4.00;;;;;;;;;;5015788;28;20018;-87
2023/04/07 00:40:40;;;;;;;6.38;4.10;;;;;;;;;;5033383;28;20087;-87
2023/04/07 00:46:24;;;;;;;5.95;3.97;;;;;;;;;;5028100;28;20029;-87
2023/04/07 00:48:50;;;;;;;5.50;3.65;;;;;;;;;;5031453;28;20013;-88
2023/04/07 00:51:15;;;;;;;6.95;4.32;;;;;;;;;;5017046;28;21783;-88
2023/04/07 00:54:04;;;;;;;6.45;4.15;;;;;;;;;;5028004;28;20081;-88
2023/04/07 00:56:35;;;;;;;5.05;3.75;;;;;;;;;;5044015;28;20041;-88
2023/04/07 00:59:41;;;;;;;7.60;4.18;;;;;;;;;;5058053;28;20010;-89
2023/04/07 01:02:29;;;;;;;6.25;3.72;;;;;;;;;;5029392;28;20029;-91
2023/04/07 01:05:29;;;;;;;7.05;3.50;;;;;;;;;;5031072;28;20053;-90
2023/04/07 01:08:34;;;;;;;6.65;4.07;;;;;;;;;;5034487;28;20014;-89
2023/04/07 01:11:07;;;;;;;5.68;3.42;;;;;;;;;;5023195;28;20026;-89
2023/04/07 01:13:46;;;;;;;6.55;3.47;;;;;;;;;;5026127;28;20029;-90
2023/04/07 01:24:02;;;;;;;6.75;3.90;;;;;;;;;;4949073;29;20035;-90
2023/04/07 01:26:29;;;;;;;9.27;4.57;;;;;;;;;;5001930;28;20049;-90
2023/04/07 01:29:02;;;;;;;5.47;3.50;;;;;;;;;;5026282;28;20036;-90
2023/04/07 01:31:28;;;;;;;5.95;3.10;;;;;;;;;;5025101;28;20440;-90
2023/04/07 01:33:56;;;;;;;6.00;4.03;;;;;;;;;;5032557;28;20028;-90
2023/04/07 01:36:23;;;;;;;5.55;3.40;;;;;;;;;;5022026;28;20021;-92
2023/04/07 01:38:50;;;;;;;8.27;4.13;;;;;;;;;;5023444;28;20022;-92
2023/04/07 01:41:17;;;;;;;6.80;4.05;;;;;;;;;;5025618;28;20034;-91
2023/04/07 01:43:44;;;;;;;5.82;3.90;;;;;;;;;;5037579;28;20059;-92
2023/04/07 01:46:10;;;;;;;8.20;4.00;;;;;;;;;;5027542;28;20022;-91
2023/04/07 01:48:36;;;;;;;6.40;4.05;;;;;;;;;;5020528;28;20030;-92
2023/04/07 01:51:04;;;;;;;5.80;3.78;;;;;;;;;;5023482;28;20107;-93
2023/04/07 01:53:30;;;;;;;6.97;4.32;;;;;;;;;;5019021;28;20087;-91
2023/04/07 01:55:55;;;;;;;8.13;4.38;;;;;;;;;;5034870;28;20370;-90
2023/04/07 01:58:21;;;;;;;7.90;4.13;;;;;;;;;;5029930;28;20048;-90
2023/04/07 02:00:47;;;;;;;5.90;4.15;;;;;;;;;;5025021;28;20112;-90
2023/04/07 02:03:22;;;;;;;8.18;3.58;;;;;;;;;;5021919;28;20031;-89
2023/04/07 02:05:54;;;;;;;7.38;4.20;;;;;;;;;;5032822;28;20030;-90
2023/04/07 02:08:22;;;;;;;9.10;4.50;;;;;;;;;;5021678;28;20029;-89
2023/04/07 02:10:50;;;;;;;7.38;4.03;;;;;;;;;;5033752;28;20021;-90
2023/04/07 02:13:18;;;;;;;9.23;4.60;;;;;;;;;;5018925;28;20056;-90
2023/04/07 02:15:45;;;;;;;7.28;4.30;;;;;;;;;;5013995;28;20060;-91
2023/04/07 02:18:13;;;;;;;6.07;4.00;;;;;;;;;;5033658;28;20025;-90
2023/04/07 02:20:41;;;;;;;8.80;4.13;;;;;;;;;;5023307;28;20091;-91
2023/04/07 02:23:07;;;;;;;6.60;3.90;;;;;;;;;;5025181;28;20036;-92
2023/04/07 02:25:33;;;;;;;8.70;4.20;;;;;;;;;;5018911;28;20120;-91
2023/04/07 02:28:00;;;;;;;6.68;4.80;;;;;;;;;;5025781;28;20053;-91
2023/04/07 02:30:27;;;;;;;6.80;3.97;;;;;;;;;;5049051;28;20010;-89
2023/04/07 02:32:53;;;;;;;7.93;4.40;;;;;;;;;;5042848;28;20093;-91
2023/04/07 02:35:18;;;;;;;7.00;4.35;;;;;;;;;;5023761;28;20026;-91
2023/04/07 02:37:45;;;;;;;9.40;4.50;;;;;;;;;;5022896;28;20112;-92
2023/04/07 02:40:11;;;;;;;13.27;5.00;;;;;;;;;;5029920;28;20071;-90
2023/04/07 02:42:36;;;;;;;9.40;4.95;;;;;;;;;;5030152;28;20037;-88
2023/04/07 02:45:03;;;;;;;9.10;5.28;;;;;;;;;;5036535;28;20029;-88
2023/04/07 02:47:28;;;;;;;9.32;4.47;;;;;;;;;;5027995;28;20135;-88
2023/04/07 02:49:53;;;;;;;7.03;4.68;;;;;;;;;;5019068;28;20057;-88
2023/04/07 02:52:19;;;;;;;6.68;4.20;;;;;;;;;;5013120;28;20063;-89
2023/04/07 02:54:44;;;;;;;6.97;3.97;;;;;;;;;;5020176;28;20469;-89
2023/04/07 02:57:09;;;;;;;5.47;4.25;;;;;;;;;;5015686;28;20100;-87
2023/04/07 02:59:35;;;;;;;7.22;4.05;;;;;;;;;;5032426;28;20053;-89
2023/04/07 03:02:00;;;;;;;8.65;4.30;;;;;;;;;;5015754;28;20026;-89
2023/04/07 03:04:26;;;;;;;10.15;4.55;;;;;;;;;;5032469;28;20514;-87
2023/04/07 03:06:51;;;;;;;4.72;3.75;;;;;;;;;;5033454;28;20056;-87
2023/04/07 03:09:17;;;;;;;7.43;3.70;;;;;;;;;;5016580;28;20022;-84
2023/04/07 03:11:42;;;;;;;9.80;5.22;;;;;;;;;;5030120;28;20056;-86
2023/04/07 03:14:07;;;;;;;7.72;4.13;;;;;;;;;;5017971;28;20109;-89
2023/04/07 03:16:33;;;;;;;10.13;4.18;;;;;;;;;;5033118;28;20053;-87
2023/04/07 03:18:58;;;;;;;7.60;4.90;;;;;;;;;;5046246;28;20060;-85
2023/04/07 03:21:23;;;;;;;7.55;4.03;;;;;;;;;;5035920;28;20017;-84
2023/04/07 03:23:49;;;;;;;8.70;4.18;;;;;;;;;;5050005;28;20078;-86
2023/04/07 03:26:15;;;;;;;5.40;3.95;;;;;;;;;;5034544;28;20041;-87
2023/04/07 03:28:40;;;;;;;7.03;4.30;;;;;;;;;;5034728;28;20021;-87
2023/04/07 03:31:06;;;;;;;6.22;3.88;;;;;;;;;;5021676;28;20037;-87
2023/04/07 03:33:31;;;;;;;9.20;5.28;;;;;;;;;;5032460;28;20041;-88
2023/04/07 03:35:56;;;;;;;8.45;4.03;;;;;;;;;;5031936;28;20033;-88
2023/04/07 03:38:21;;;;;;;7.68;4.18;;;;;;;;;;5028567;28;20038;-88
2023/04/07 03:40:47;;;;;;;9.40;4.55;;;;;;;;;;5024010;28;20030;-88
2023/04/07 03:43:14;;;;;;;6.38;4.30;;;;;;;;;;5033303;28;20033;-86
2023/04/07 03:45:40;;;;;;;6.95;4.10;;;;;;;;;;5027159;28;20033;-87
2023/04/07 03:48:09;;;;;;;8.55;4.47;;;;;;;;;;5031920;28;20025;-87
2023/04/07 03:50:35;;;;;;;5.88;4.22;;;;;;;;;;5024894;28;20104;-87
2023/04/07 03:53:00;;;;;;;7.20;4.50;;;;;;;;;;5007075;28;20045;-87
2023/04/07 03:55:25;;;;;;;6.72;4.45;;;;;;;;;;5029500;28;20033;-88
2023/04/07 03:57:51;;;;;;;10.18;4.63;;;;;;;;;;5035248;28;20055;-88
2023/04/07 04:00:16;;;;;;;8.45;4.55;;;;;;;;;;5037420;28;20017;-87
2023/04/07 04:02:41;;;;;;;6.90;4.57;;;;;;;;;;5013442;28;20029;-89
2023/04/07 04:05:07;;;;;;;6.30;4.22;;;;;;;;;;5034572;28;20120;-88
2023/04/07 04:07:33;;;;;;;7.07;4.25;;;;;;;;;;5037859;28;20029;-86
2023/04/07 04:09:58;;;;;;;11.25;5.82;;;;;;;;;;5026780;28;20033;-87
2023/04/07 04:12:23;;;;;;;6.20;4.30;;;;;;;;;;5035873;28;20030;-88
2023/04/07 04:14:49;;;;;;;6.97;4.60;;;;;;;;;;5023359;28;20032;-87
2023/04/07 04:17:14;;;;;;;7.78;4.53;;;;;;;;;;5013863;28;20033;-87
2023/04/07 04:19:40;;;;;;;7.43;4.07;;;;;;;;;;5029158;28;20088;-86
2023/04/07 04:22:05;;;;;;;7.72;4.38;;;;;;;;;;5030623;28;20057;-86
2023/04/07 04:24:30;;;;;;;8.90;5.05;;;;;;;;;;5027441;28;20082;-86
2023/04/07 04:26:56;;;;;;;6.35;4.25;;;;;;;;;;5037381;28;20030;-86
2023/04/07 04:29:21;;;;;;;9.38;4.40;;;;;;;;;;5038055;28;20036;-86
2023/04/07 04:31:46;;;;;;;6.72;4.35;;;;;;;;;;5032038;28;20037;-86
2023/04/07 04:34:12;;;;;;;6.15;4.00;;;;;;;;;;5012631;28;20021;-87
2023/04/07 04:36:39;;;;;;;7.38;4.82;;;;;;;;;;5025137;28;20056;-86
2023/04/07 04:39:04;;;;;;;8.20;5.28;;;;;;;;;;5017320;28;20563;-86
2023/04/07 04:41:30;;;;;;;11.57;5.40;;;;;;;;;;5029974;28;20025;-86
2023/04/07 04:43:55;;;;;;;8.30;4.90;;;;;;;;;;5035697;28;20025;-87
2023/04/07 04:46:20;;;;;;;8.48;4.80;;;;;;;;;;5038805;28;20027;-86
2023/04/07 04:48:46;;;;;;;10.40;4.70;;;;;;;;;;5016181;28;20033;-86
2023/04/07 04:51:11;;;;;;;5.95;4.18;;;;;;;;;;5028614;28;20022;-87
2023/04/07 04:53:36;;;;;;;9.32;4.40;;;;;;;;;;5009483;28;20025;-86
2023/04/07 04:56:02;;;;;;;7.43;5.10;;;;;;;;;;5031498;28;20026;-89
2023/04/07 04:58:27;;;;;;;7.90;4.28;;;;;;;;;;5006256;28;21271;-86
2023/04/07 05:00:57;;;;;;;10.05;4.53;;;;;;;;;;5048374;28;20014;-88
2023/04/07 05:03:24;;;;;;;10.43;5.00;;;;;;;;;;5043296;28;20037;-87
2023/04/07 05:05:50;;;;;;;9.73;4.70;;;;;;;;;;5050963;28;20001;-87
2023/04/07 05:08:15;;;;;;;10.10;5.57;;;;;;;;;;5028279;28;20116;-85
2023/04/07 05:10:41;;;;;;;8.15;4.95;;;;;;;;;;5035122;28;20104;-86
2023/04/07 05:13:06;;;;;;;11.18;5.05;;;;;;;;;;5039880;28;20025;-86
2023/04/07 05:15:31;;;;;;;7.28;4.38;;;;;;;;;;5038741;28;20036;-88
2023/04/07 05:17:57;;;;;;;11.30;5.07;;;;;;;;;;5048175;28;20140;-88
2023/04/07 05:20:22;;;;;;;7.20;4.93;;;;;;;;;;5013437;28;20355;-88
2023/04/07 05:22:47;;;;;;;7.45;4.90;;;;;;;;;;5019293;28;20101;-88
2023/04/07 05:25:13;;;;;;;6.65;4.13;;;;;;;;;;5027195;28;20021;-89
2023/04/07 05:27:38;;;;;;;8.88;5.45;;;;;;;;;;5026145;28;20112;-88
2023/04/07 05:30:04;;;;;;;8.85;5.45;;;;;;;;;;5036692;28;20374;-88
2023/04/07 05:32:30;;;;;;;7.20;4.72;;;;;;;;;;5020455;28;20036;-87
2023/04/07 05:34:56;;;;;;;7.90;4.72;;;;;;;;;;5016803;28;20049;-87
2023/04/07 05:37:21;;;;;;;9.63;5.13;;;;;;;;;;5027701;28;20080;-87
2023/04/07 05:39:46;;;;;;;8.63;5.35;;;;;;;;;;5031033;28;20244;-86
2023/04/07 05:42:12;;;;;;;8.73;4.75;;;;;;;;;;5017302;28;20488;-90
2023/04/07 05:44:37;;;;;;;10.90;5.50;;;;;;;;;;5031419;28;20036;-89
2023/04/07 05:47:07;;;;;;;8.55;4.82;;;;;;;;;;5026733;28;20088;-88
2023/04/07 05:49:33;;;;;;;10.48;5.65;;;;;;;;;;5024668;28;20049;-88
2023/04/07 05:51:58;;;;;;;7.63;4.95;;;;;;;;;;5031007;28;20036;-88
2023/04/07 05:54:23;;;;;;;11.70;5.45;;;;;;;;;;5028465;28;20052;-87
2023/04/07 05:56:49;;;;;;;9.55;5.20;;;;;;;;;;5033527;28;20087;-88
2023/04/07 05:59:14;;;;;;;10.88;5.80;;;;;;;;;;5009934;28;20045;-90
2023/04/07 06:01:41;;;;;;;8.52;5.07;;;;;;;;;;5028122;28;20062;-88
2023/04/07 06:04:06;;;;;;;10.00;5.43;;;;;;;;;;5002728;28;20025;-88
2023/04/07 06:06:31;;;;;;;10.77;5.78;;;;;;;;;;5034743;28;20024;-88
2023/04/07 06:08:57;;;;;;;9.85;4.95;;;;;;;;;;5018739;28;20550;-87
2023/04/07 06:11:22;;;;;;;10.32;5.97;;;;;;;;;;5027369;28;20021;-86
2023/04/07 06:13:47;;;;;;;11.00;5.50;;;;;;;;;;5028315;28;20037;-87
2023/04/07 06:16:13;;;;;;;7.63;4.45;;;;;;;;;;5012847;28;20026;-86
2023/04/07 06:18:39;;;;;;;6.60;4.75;;;;;;;;;;5007956;28;20409;-87
2023/04/07 06:21:04;;;;;;;7.85;5.22;;;;;;;;;;5034954;28;20030;-86
2023/04/07 06:23:30;;;;;;;8.05;4.72;;;;;;;;;;5012180;28;20027;-87
2023/04/07 06:25:55;;;;;;;9.63;5.22;;;;;;;;;;5029484;28;20124;-86
2023/04/07 06:28:21;;;;;;;9.88;5.63;;;;;;;;;;5020843;28;20029;-88
2023/04/07 06:30:46;;;;;;;11.50;5.95;;;;;;;;;;5015529;28;20026;-86
2023/04/07 06:33:11;;;;;;;10.32;5.07;;;;;;;;;;5029201;28;20492;-88
2023/04/07 06:35:38;;;;;;;10.45;4.93;;;;;;;;;;5018676;28;20037;-87
2023/04/07 06:38:04;;;;;;;9.50;5.20;;;;;;;;;;5011785;28;20025;-85
2023/04/07 06:40:29;;;;;;;10.90;5.22;;;;;;;;;;5018805;28;20527;-88
2023/04/07 06:42:55;;;;;;;8.27;4.95;;;;;;;;;;5030525;28;20029;-87
2023/04/07 06:45:20;;;;;;;10.45;5.07;;;;;;;;;;5021712;28;20097;-87
2023/04/07 06:47:46;;;;;;;9.18;5.15;;;;;;;;;;5028810;28;20029;-87
2023/04/07 06:50:11;;;;;;;7.03;4.30;;;;;;;;;;5038135;28;20037;-85
2023/04/07 06:52:36;;;;;;;9.30;5.10;;;;;;;;;;5013176;28;20400;-86
2023/04/07 06:55:02;;;;;;;11.60;5.25;;;;;;;;;;5030652;28;20040;-84
2023/04/07 06:57:27;;;;;;;7.10;4.68;;;;;;;;;;5042116;28;20044;-85
2023/04/07 06:59:53;;;;;;;9.32;5.53;;;;;;;;;;5040606;28;20041;-87
2023/04/07 07:02:18;;;;;;;10.27;5.38;;;;;;;;;;5034004;28;20040;-88
2023/04/07 07:04:43;;;;;;;9.00;4.78;;;;;;;;;;5040771;28;20484;-84
2023/04/07 07:07:09;;;;;;;9.27;5.93;;;;;;;;;;5013648;28;20025;-85
2023/04/07 07:09:34;;;;;;;11.23;5.38;;;;;;;;;;5037579;28;20018;-85
2023/04/07 07:12:01;;;;;;;8.30;4.85;;;;;;;;;;5033489;28;20078;-87
2023/04/07 07:14:26;;;;;;;8.32;4.75;;;;;;;;;;5014984;28;20748;-87
2023/04/07 07:16:52;;;;;;;9.73;5.28;;;;;;;;;;5022216;28;20034;-87
2023/04/07 07:19:17;;;;;;;7.35;5.32;;;;;;;;;;5010027;28;20026;-85
2023/04/07 07:21:42;;;;;;;9.15;5.22;;;;;;;;;;5022707;28;20037;-87
2023/04/07 07:24:08;;;;;;;7.85;5.18;;;;;;;;;;5026896;28;20018;-87
2023/04/07 07:26:33;;;;;;;11.88;5.80;;;;;;;;;;5008512;28;20026;-87
2023/04/07 07:28:59;;;;;;;8.05;5.30;;;;;;;;;;5025918;28;20053;-87
2023/04/07 07:31:24;;;;;;;8.48;5.45;;;;;;;;;;5026201;28;20025;-87
2023/04/07 07:33:50;;;;;;;7.47;5.28;;;;;;;;;;5030669;28;20029;-86
2023/04/07 07:36:16;;;;;;;9.38;5.07;;;;;;;;;;5023840;28;20029;-86
2023/04/07 07:38:42;;;;;;;10.55;5.50;;;;;;;;;;5024854;28;20033;-85
2023/04/07 07:41:07;;;;;;;7.75;5.55;;;;;;;;;;5025698;28;20045;-87
2023/04/07 07:43:32;;;;;;;10.18;5.88;;;;;;;;;;5034159;28;20029;-87
2023/04/07 07:45:58;;;;;;;8.75;5.57;;;;;;;;;;5032009;28;20040;-86
2023/04/07 07:48:23;;;;;;;9.13;5.40;;;;;;;;;;5009393;28;20029;-86
2023/04/07 07:50:49;;;;;;;8.02;4.63;;;;;;;;;;5013015;28;20052;-87
2023/04/07 07:53:15;;;;;;;8.35;4.82;;;;;;;;;;5032449;28;20087;-86
2023/04/07 07:55:40;;;;;;;6.53;4.20;;;;;;;;;;5005988;28;20465;-86
2023/04/07 07:58:05;;;;;;;7.47;4.35;;;;;;;;;;5029030;28;20497;-87
2023/04/07 08:00:31;;;;;;;5.90;4.40;;;;;;;;;;5034878;28;20385;-87
2023/04/07 08:02:56;;;;;;;7.82;4.68;;;;;;;;;;5029750;28;20025;-85
2023/04/07 08:05:22;;;;;;;6.95;4.28;;;;;;;;;;5024932;28;20048;-87
2023/04/07 08:07:47;;;;;;;5.90;4.10;;;;;;;;;;5039740;28;20036;-88
2023/04/07 08:10:13;;;;;;;8.25;4.50;;;;;;;;;;5022844;28;20033;-85
2023/04/07 08:12:39;;;;;;;7.70;4.55;;;;;;;;;;5017002;28;20022;-86
2023/04/07 08:15:08;;;;;;;9.70;4.30;;;;;;;;;;5026686;28;20029;-89
2023/04/07 08:17:34;;;;;;;7.18;4.80;;;;;;;;;;5028321;28;20497;-87
2023/04/07 08:20:00;;;;;;;7.63;4.57;;;;;;;;;;5015757;28;20021;-88
2023/04/07 08:22:25;;;;;;;5.15;3.55;;;;;;;;;;5025407;28;20029;-85
2023/04/07 08:24:51;;;;;;;6.93;4.13;;;;;;;;;;5032503;28;20021;-86
2023/04/07 08:27:16;;;;;;;8.27;4.60;;;;;;;;;;5011223;28;20033;-85
2023/04/07 08:29:41;;;;;;;5.72;4.18;;;;;;;;;;5025863;28;20049;-87
2023/04/07 08:32:06;;;;;;;5.53;3.65;;;;;;;;;;5008507;28;20025;-86
2023/04/07 08:34:32;;;;;;;4.68;3.35;;;;;;;;;;5024794;28;20559;-85
2023/04/07 08:36:57;;;;;;;5.15;3.47;;;;;;;;;;5020032;28;20451;-86
2023/04/07 08:39:24;;;;;;;5.20;3.75;;;;;;;;;;5026660;28;20061;-86
2023/04/07 08:41:50;;;;;;;5.20;3.72;;;;;;;;;;5031128;28;20029;-88
2023/04/07 08:44:16;;;;;;;8.75;4.05;;;;;;;;;;5028537;28;20022;-86
2023/04/07 08:46:42;;;;;;;5.38;3.88;;;;;;;;;;5014391;28;20026;-85
2023/04/07 08:49:10;;;;;;;6.38;3.67;;;;;;;;;;5031433;28;20086;-87
2023/04/07 08:51:37;;;;;;;7.70;4.07;;;;;;;;;;5003775;28;20021;-87
2023/04/07 08:54:05;;;;;;;6.78;4.43;;;;;;;;;;5033696;28;20025;-88
2023/04/07 08:56:33;;;;;;;6.68;4.20;;;;;;;;;;5017446;28;20125;-86
2023/04/07 08:59:00;;;;;;;5.65;3.65;;;;;;;;;;5013188;28;20030;-87
2023/04/07 09:01:26;;;;;;;5.32;3.42;;;;;;;;;;5003662;28;20037;-85
2023/04/07 09:03:52;;;;;;;4.95;3.38;;;;;;;;;;5013936;28;20029;-87
2023/04/07 09:06:17;;;;;;;5.25;3.42;;;;;;;;;;5040381;28;20034;-86
2023/04/07 09:08:43;;;;;;;6.72;3.90;;;;;;;;;;5035541;28;20053;-85
2023/04/07 09:11:08;;;;;;;6.65;3.88;;;;;;;;;;5026809;28;20059;-86
2023/04/07 09:13:34;;;;;;;5.00;3.55;;;;;;;;;;5041936;28;20029;-88
2023/04/07 09:16:01;;;;;;;5.45;3.85;;;;;;;;;;5028568;28;20021;-87
2023/04/07 09:18:27;;;;;;;11.55;4.22;;;;;;;;;;5042736;28;20551;-87
2023/04/07 09:20:58;;;;;;;5.40;3.35;;;;;;;;;;5021127;28;20052;-87
2023/04/07 09:23:36;;;;;;;5.20;3.67;;;;;;;;;;5022857;28;20368;-83
2023/04/07 09:26:16;;;;;;;4.15;3.38;;;;;;;;;;5044918;28;20112;-86
2023/04/07 09:28:43;;;;;;;4.15;3.03;;;;;;;;;;5032371;28;20022;-86
2023/04/07 09:31:08;;;;;;;6.30;3.60;;;;;;;;;;5006839;28;20117;-87
2023/04/07 09:33:35;;;;;;;7.38;3.85;;;;;;;;;;5028692;28;20053;-86
2023/04/07 09:36:01;;;;;;;7.53;3.50;;;;;;;;;;5014608;28;20474;-86
2023/04/07 09:38:38;;;;;;;6.72;3.50;;;;;;;;;;5009729;28;20029;-87
2023/04/07 09:41:12;;;;;;;5.75;3.15;;;;;;;;;;5028593;28;20025;-85
2023/04/07 09:43:40;;;;;;;7.18;3.30;;;;;;;;;;5030297;28;20442;-87
2023/04/07 09:46:07;;;;;;;6.10;3.67;;;;;;;;;;5022740;28;20036;-86
2023/04/07 09:48:33;;;;;;;4.85;3.10;;;;;;;;;;5034358;28;20025;-87
2023/04/07 09:51:26;;;;;;;5.32;3.55;;;;;;;;;;5022460;28;20030;-88
2023/04/07 09:53:52;;;;;;;3.92;3.03;;;;;;;;;;5010679;28;20117;-87
2023/04/07 09:56:21;;;;;;;7.22;3.88;;;;;;;;;;5029537;28;20061;-87
2023/04/07 09:58:47;;;;;;;4.65;3.45;;;;;;;;;;5025446;28;20030;-87
2023/04/07 10:01:18;;;;;;;6.10;3.80;;;;;;;;;;5009163;28;20033;-85
2023/04/07 10:03:49;;;;;;;8.93;4.45;;;;;;;;;;5033788;28;20022;-86
2023/04/07 10:06:15;;;;;;;7.07;3.40;;;;;;;;;;5007628;28;20501;-87
2023/04/07 10:08:41;;;;;;;5.38;3.65;;;;;;;;;;5008739;28;20037;-86
2023/04/07 10:11:08;;;;;;;6.47;4.10;;;;;;;;;;5034331;28;20029;-86
2023/04/07 10:13:36;;;;;;;6.70;3.70;;;;;;;;;;5022772;28;20100;-85
2023/04/07 10:16:04;;;;;;;4.65;3.33;;;;;;;;;;5024861;28;20046;-86
2023/04/07 10:18:31;;;;;;;5.53;3.08;;;;;;;;;;5021076;28;20157;-87
2023/04/07 10:21:03;;;;;;;5.15;3.42;;;;;;;;;;5010943;28;20021;-86
2023/04/07 10:23:28;;;;;;;6.25;3.40;;;;;;;;;;5030420;28;20033;-86
2023/04/07 10:25:57;;;;;;;7.80;3.35;;;;;;;;;;5026407;28;20032;-85
2023/04/07 10:28:23;;;;;;;6.30;3.47;;;;;;;;;;5032577;28;20105;-87
2023/04/07 10:30:49;;;;;;;5.38;3.88;;;;;;;;;;5029599;28;20057;-86
2023/04/07 10:33:15;;;;;;;6.80;3.67;;;;;;;;;;5018125;28;20080;-89
2023/04/07 10:36:02;;;;;;;4.57;3.35;;;;;;;;;;5018694;28;20037;-87
2023/04/07 10:38:28;;;;;;;5.40;3.28;;;;;;;;;;5013083;28;20033;-89
2023/04/07 10:40:53;;;;;;;7.95;3.67;;;;;;;;;;5034432;28;20033;-88
2023/04/07 10:43:40;;;;;;;7.55;3.33;;;;;;;;;;5019717;28;20033;-88
2023/04/07 10:46:06;;;;;;;5.10;3.50;;;;;;;;;;5024073;28;20133;-88
2023/04/07 10:48:35;;;;;;;5.05;3.47;;;;;;;;;;5007576;28;20815;-88
2023/04/07 10:51:03;;;;;;;7.63;3.97;;;;;;;;;;5010666;28;20022;-86
2023/04/07 10:53:30;;;;;;;5.90;3.35;;;;;;;;;;5028527;28;20035;-87
2023/04/07 10:55:56;;;;;;;8.15;3.38;;;;;;;;;;5030230;28;20069;-87
2023/04/07 10:58:23;;;;;;;5.57;3.38;;;;;;;;;;5016261;28;20029;-85
2023/04/07 11:01:08;;;;;;;6.22;3.30;;;;;;;;;;5030901;28;20048;-85
2023/04/07 11:03:59;;;;;;;7.13;3.55;;;;;;;;;;5021271;28;20121;-87
2023/04/07 11:06:26;;;;;;;5.32;3.70;;;;;;;;;;5001715;28;20424;-87
2023/04/07 11:08:51;;;;;;;8.07;3.50;;;;;;;;;;5031269;28;20075;-87
2023/04/07 11:11:38;;;;;;;6.43;3.78;;;;;;;;;;5014016;28;20029;-86
2023/04/07 11:14:04;;;;;;;5.97;3.67;;;;;;;;;;5013657;28;20029;-86
2023/04/07 11:16:38;;;;;;;5.93;3.65;;;;;;;;;;5032563;28;20068;-86
2023/04/07 11:19:03;;;;;;;6.13;3.55;;;;;;;;;;5030146;28;20052;-86
2023/04/07 11:21:29;;;;;;;5.70;3.60;;;;;;;;;;5012378;28;20025;-87
2023/04/07 11:23:54;;;;;;;6.65;3.65;;;;;;;;;;5015250;28;20025;-87
2023/04/07 11:26:20;;;;;;;9.00;3.80;;;;;;;;;;5031270;28;20033;-88
2023/04/07 11:28:53;;;;;;;5.82;3.33;;;;;;;;;;5022547;28;20089;-87
2023/04/07 11:31:23;;;;;;;4.63;3.38;;;;;;;;;;5027688;28;20033;-87
2023/04/07 11:33:57;;;;;;;4.80;3.20;;;;;;;;;;5034822;28;20036;-88
2023/04/07 11:36:31;;;;;;;4.32;3.03;;;;;;;;;;5033969;28;20037;-87
2023/04/07 11:38:56;;;;;;;4.32;2.72;;;;;;;;;;5031078;28;20112;-86
2023/04/07 11:41:23;;;;;;;5.32;3.15;;;;;;;;;;5012821;28;20041;-87
2023/04/07 11:44:03;;;;;;;4.65;3.20;;;;;;;;;;5034240;28;20109;-88
2023/04/07 11:46:28;;;;;;;6.85;2.88;;;;;;;;;;5016902;28;20017;-88
2023/04/07 11:48:53;;;;;;;3.75;2.92;;;;;;;;;;5028951;28;20093;-87
2023/04/07 11:51:23;;;;;;;5.32;3.17;;;;;;;;;;5034156;28;20025;-88
2023/04/07 11:53:55;;;;;;;9.25;3.25;;;;;;;;;;5018718;28;20013;-88
2023/04/07 11:56:21;;;;;;;6.82;3.50;;;;;;;;;;5013215;28;20505;-89
2023/04/07 11:58:54;;;;;;;4.28;2.75;;;;;;;;;;5015799;28;20060;-90
2023/04/07 12:01:20;;;;;;;4.20;3.00;;;;;;;;;;5020252;28;20096;-89
2023/04/07 12:04:00;;;;;;;5.40;3.58;;;;;;;;;;5014751;28;20046;-89
2023/04/07 12:06:37;;;;;;;6.15;3.75;;;;;;;;;;5018708;28;20025;-88
2023/04/07 12:09:07;;;;;;;6.10;3.60;;;;;;;;;;5017108;28;20026;-89
2023/04/07 12:11:33;;;;;;;8.15;3.78;;;;;;;;;;5017730;28;20029;-88
2023/04/07 12:13:59;;;;;;;6.05;3.78;;;;;;;;;;5019132;28;20103;-87
2023/04/07 12:16:25;;;;;;;9.25;3.70;;;;;;;;;;5017694;28;20025;-86
2023/04/07 12:19:13;;;;;;;4.03;2.75;;;;;;;;;;5032169;28;20012;-86
2023/04/07 12:21:39;;;;;;;5.28;3.40;;;;;;;;;;5020199;28;20060;-86
2023/04/07 12:24:04;;;;;;;5.82;3.05;;;;;;;;;;5034399;28;20151;-86
2023/04/07 12:26:29;;;;;;;9.50;3.67;;;;;;;;;;5013179;28;20030;-87
2023/04/07 12:28:57;;;;;;;4.97;3.03;;;;;;;;;;5033355;28;20076;-88
2023/04/07 12:31:22;;;;;;;5.43;2.88;;;;;;;;;;5037347;28;20097;-87
2023/04/07 12:33:48;;;;;;;2.72;2.22;;;;;;;;;;5010692;28;20057;-87
2023/04/07 12:36:13;;;;;;;4.18;2.40;;;;;;;;;;5004732;28;20033;-87
2023/04/07 12:38:39;;;;;;;5.90;2.47;;;;;;;;;;5035230;28;20072;-87
2023/04/07 12:41:04;;;;;;;2.45;2.00;;;;;;;;;;5036511;28;20043;-86
2023/04/07 12:43:30;;;;;;;3.35;2.13;;;;;;;;;;5033659;28;20026;-86
2023/04/07 12:45:56;;;;;;;4.15;2.90;;;;;;;;;;5017932;28;20028;-86
2023/04/07 12:48:22;;;;;;;4.90;2.90;;;;;;;;;;5039053;28;20025;-86
2023/04/07 12:50:47;;;;;;;4.57;3.15;;;;;;;;;;5034853;28;20017;-86
2023/04/07 12:53:13;;;;;;;5.13;2.28;;;;;;;;;;5032005;28;20017;-85
2023/04/07 12:55:38;;;;;;;3.00;2.40;;;;;;;;;;5033820;28;20037;-85
2023/04/07 12:58:04;;;;;;;4.63;2.38;;;;;;;;;;5034780;28;20026;-85
2023/04/07 13:00:30;;;;;;;3.03;2.17;;;;;;;;;;5014557;28;20022;-85
2023/04/07 13:02:56;;;;;;;6.78;2.20;;;;;;;;;;5015640;28;20060;-86
2023/04/07 13:05:21;;;;;;;3.75;2.55;;;;;;;;;;5043123;28;20025;-85
2023/04/07 13:07:46;;;;;;;7.00;2.70;;;;;;;;;;5012970;28;20107;-86
2023/04/07 13:10:12;;;;;;;3.58;2.30;;;;;;;;;;5020571;28;20489;-88
2023/04/07 13:12:38;;;;;;;5.18;2.45;;;;;;;;;;5058122;28;20025;-87
2023/04/07 13:15:05;;;;;;;4.80;2.30;;;;;;;;;;5049884;28;20071;-89
2023/04/07 13:17:31;;;;;;;4.00;2.45;;;;;;;;;;5051719;28;20014;-86
2023/04/07 13:19:56;;;;;;;3.65;2.63;;;;;;;;;;5054655;28;20105;-85
2023/04/07 13:22:22;;;;;;;3.58;2.83;;;;;;;;;;5055671;28;20030;-86
2023/04/07 13:24:48;;;;;;;6.32;2.55;;;;;;;;;;5039502;28;20010;-89
2023/04/07 13:27:13;;;;;;;3.10;2.20;;;;;;;;;;5049914;28;20013;-87
2023/04/07 13:29:38;;;;;;;2.80;2.38;;;;;;;;;;5053369;28;20024;-88
2023/04/07 13:32:08;;;;;;;4.47;2.60;;;;;;;;;;5047202;28;20013;-88
2023/04/07 13:34:35;;;;;;;6.30;2.58;;;;;;;;;;5048195;28;20017;-87
2023/04/07 13:37:02;;;;;;;6.47;2.78;;;;;;;;;;5035758;28;20048;-89
2023/04/07 13:39:28;;;;;;;3.15;2.20;;;;;;;;;;5030147;28;20025;-87
2023/04/07 13:41:53;;;;;;;6.13;2.65;;;;;;;;;;5012757;28;20049;-86
2023/04/07 13:44:19;;;;;;;4.10;3.35;;;;;;;;;;5012523;28;20473;-86
2023/04/07 13:46:45;;;;;;;2.97;2.22;;;;;;;;;;5026468;28;20022;-86
2023/04/07 13:49:10;;;;;;;3.10;2.30;;;;;;;;;;5026541;28;20110;-86
2023/04/07 13:51:36;;;;;;;6.97;2.45;;;;;;;;;;5025574;28;20036;-86
2023/04/07 13:54:02;;;;;;;4.75;2.47;;;;;;;;;;5032434;28;20128;-87
2023/04/07 13:56:27;;;;;;;4.45;2.63;;;;;;;;;;5021761;28;20107;-89
2023/04/07 13:58:52;;;;;;;3.30;2.50;;;;;;;;;;5028766;28;20080;-84
2023/04/07 14:01:18;;;;;;;5.70;2.70;;;;;;;;;;5029917;28;20048;-85
2023/04/07 14:03:43;;;;;;;8.60;2.67;;;;;;;;;;5002882;28;20025;-88
2023/04/07 14:06:09;;;;;;;4.32;2.95;;;;;;;;;;5035652;28;20029;-86
2023/04/07 14:08:34;;;;;;;4.35;3.15;;;;;;;;;;5027174;28;20029;-85
2023/04/07 14:11:01;;;;;;;6.47;2.60;;;;;;;;;;5028132;28;20052;-88
2023/04/07 14:13:26;;;;;;;4.93;2.35;;;;;;;;;;5017617;28;20379;-84
2023/04/07 14:15:52;;;;;;;4.20;2.35;;;;;;;;;;5027451;28;20033;-88
2023/04/07 14:18:18;;;;;;;2.78;2.58;;;;;;;;;;5034643;28;20429;-87
2023/04/07 14:20:43;;;;;;;3.35;2.28;;;;;;;;;;5013987;28;20120;-84
2023/04/07 14:23:09;;;;;;;3.45;2.60;;;;;;;;;;5034477;28;20021;-86
2023/04/07 14:25:35;;;;;;;4.72;2.58;;;;;;;;;;5028466;28;20032;-87
2023/04/07 14:28:00;;;;;;;2.63;2.05;;;;;;;;;;5019385;28;20092;-86
2023/04/07 14:30:25;;;;;;;4.32;2.40;;;;;;;;;;5012640;28;20530;-86
2023/04/07 14:32:52;;;;;;;2.28;2.08;;;;;;;;;;5009640;28;20030;-87
2023/04/07 14:35:17;;;;;;;3.92;2.20;;;;;;;;;;5027566;28;20029;-88
2023/04/07 14:37:43;;;;;;;2.42;2.22;;;;;;;;;;5023622;28;20537;-89
2023/04/07 14:40:08;;;;;;;2.47;2.28;;;;;;;;;;5004534;28;20033;-87
2023/04/07 14:42:34;;;;;;;2.38;2.17;;;;;;;;;;5009172;28;20029;-85
2023/04/07 14:45:00;;;;;;;4.25;2.58;;;;;;;;;;5023485;28;20029;-88
2023/04/07 14:47:26;;;;;;;3.72;2.58;;;;;;;;;;5011738;28;20026;-88
2023/04/07 14:49:51;;;;;;;5.70;2.60;;;;;;;;;;5033008;28;20021;-88
2023/04/07 14:52:17;;;;;;;4.30;2.33;;;;;;;;;;5030437;28;20028;-87
2023/04/07 14:54:42;;;;;;;8.38;2.38;;;;;;;;;;5014897;28;20029;-87